Time;durP1;ratioP1;P1;durP2;ratioP2;P2;SDS_P1;SDS_P2;PMS_P1;PMS_P2;Temp;Humidity;BMP_temperature;BMP_pressure;BME280_temperature;BME280_humidity;BME280_pressure;Samples;Min_cycle;Max_cycle;Signal;HPM_P1;HPM_P2
2022/10/16 00:01:44;;;;;;;1.90;1.60;;;15.90;98.00;;;;;;5132276;28;20983;-68
2022/10/16 00:04:11;;;;;;;2.13;1.63;;;15.90;98.00;;;;;;5132139;27;20449;-68
2022/10/16 00:06:39;;;;;;;2.00;1.70;;;15.90;98.00;;;;;;5132241;28;20450;-69
2022/10/16 00:09:07;;;;;;;3.10;1.67;;;15.90;98.00;;;;;;5132216;28;20813;-69
2022/10/16 00:11:37;;;;;;;2.33;1.57;;;15.90;98.00;;;;;;5132200;28;20462;-69
2022/10/16 00:14:06;;;;;;;2.10;1.67;;;15.90;98.00;;;;;;5132338;28;21035;-69
2022/10/16 00:16:36;;;;;;;6.83;1.60;;;15.90;98.00;;;;;;5132152;28;20653;-69
2022/10/16 00:19:03;;;;;;;15.63;1.80;;;16.00;98.00;;;;;;5132129;27;20461;-68
2022/10/16 00:21:32;;;;;;;2.13;1.60;;;16.00;98.00;;;;;;5136003;27;20481;-68
2022/10/16 00:24:01;;;;;;;1.63;1.60;;;15.90;98.00;;;;;;5136116;27;20457;-68
2022/10/16 00:26:30;;;;;;;2.10;1.80;;;15.80;98.00;;;;;;5136133;27;20552;-68
2022/10/16 00:28:57;;;;;;;1.73;1.43;;;15.70;98.00;;;;;;5136057;27;20469;-69
2022/10/16 00:31:25;;;;;;;1.70;1.60;;;15.60;98.00;;;;;;5136175;27;20537;-68
2022/10/16 00:33:54;;;;;;;2.27;1.80;;;15.60;98.00;;;;;;5136078;27;20454;-68
2022/10/16 00:36:22;;;;;;;1.63;1.53;;;15.60;98.00;;;;;;5135896;27;20849;-68
2022/10/16 00:38:52;;;;;;;3.30;1.97;;;15.60;98.00;;;;;;5135670;27;20484;-69
2022/10/16 00:41:20;;;;;;;2.03;1.70;;;15.60;98.00;;;;;;5135588;27;20963;-69
2022/10/16 00:43:49;;;;;;;3.57;1.83;;;15.50;98.00;;;;;;5135605;27;20974;-68
2022/10/16 00:46:20;;;;;;;1.77;1.57;;;15.60;98.00;;;;;;5135743;27;20464;-68
2022/10/16 00:48:51;;;;;;;1.97;1.80;;;15.60;98.00;;;;;;5135691;27;20662;-68
2022/10/16 00:51:25;;;;;;;2.23;1.70;;;15.50;98.00;;;;;;5135763;27;20450;-68
2022/10/16 00:53:53;;;;;;;2.67;2.03;;;15.40;98.00;;;;;;5135866;27;20544;-68
2022/10/16 00:56:21;;;;;;;2.43;1.80;;;15.40;98.00;;;;;;5135535;27;20468;-68
2022/10/16 00:58:48;;;;;;;1.73;1.57;;;15.30;98.00;;;;;;5135405;27;20462;-68
2022/10/16 01:01:15;;;;;;;3.03;1.90;;;15.30;98.00;;;;;;5135295;27;20972;-69
2022/10/16 01:03:43;;;;;;;2.13;1.50;;;15.30;98.00;;;;;;5135208;27;20943;-68
2022/10/16 01:06:24;;;;;;;2.50;2.03;;;15.30;98.00;;;;;;5134271;27;20454;-68
2022/10/16 01:09:02;;;;;;;2.37;1.90;;;15.30;98.00;;;;;;5135455;27;20506;-69
2022/10/16 01:11:36;;;;;;;2.50;1.60;;;15.30;98.00;;;;;;5134127;27;20862;-68
2022/10/16 01:14:12;;;;;;;2.47;1.80;;;15.30;98.00;;;;;;5135326;27;20727;-68
2022/10/16 01:16:44;;;;;;;2.60;2.00;;;15.20;98.00;;;;;;5135316;27;20957;-68
2022/10/16 01:19:19;;;;;;;2.70;1.80;;;15.20;98.00;;;;;;5135119;27;20453;-68
2022/10/16 01:21:51;;;;;;;3.07;1.93;;;15.20;98.00;;;;;;5135144;27;20486;-68
2022/10/16 01:24:28;;;;;;;2.70;2.00;;;15.30;98.00;;;;;;5134946;27;20475;-68
2022/10/16 01:27:12;;;;;;;2.90;1.70;;;15.20;98.00;;;;;;5135118;27;20792;-68
2022/10/16 01:29:46;;;;;;;5.60;1.90;;;15.20;98.00;;;;;;5117017;27;20838;-68
2022/10/16 01:32:19;;;;;;;2.90;1.77;;;15.30;98.00;;;;;;5134421;27;20811;-68
2022/10/16 01:34:50;;;;;;;2.70;1.87;;;15.20;98.00;;;;;;5134770;27;20581;-68
2022/10/16 01:37:23;;;;;;;2.63;1.97;;;15.20;98.00;;;;;;5133629;27;21028;-68
2022/10/16 01:39:54;;;;;;;2.30;2.00;;;15.20;98.00;;;;;;5134737;27;20477;-68
2022/10/16 01:42:27;;;;;;;2.70;1.90;;;15.10;98.00;;;;;;5134578;27;20485;-68
2022/10/16 01:44:55;;;;;;;1.83;1.67;;;15.10;98.00;;;;;;5134526;27;20491;-68
2022/10/16 01:47:26;;;;;;;1.80;1.70;;;15.10;98.00;;;;;;5134401;27;20523;-68
2022/10/16 01:49:56;;;;;;;2.47;1.70;;;15.10;98.00;;;;;;5134591;27;20472;-69
2022/10/16 01:52:26;;;;;;;2.67;1.70;;;15.10;98.00;;;;;;5134429;27;20475;-68
2022/10/16 01:54:57;;;;;;;2.87;2.17;;;15.10;98.00;;;;;;5133340;27;20882;-68
2022/10/16 01:57:27;;;;;;;3.07;2.00;;;15.30;98.00;;;;;;5134128;27;20860;-69
2022/10/16 01:59:59;;;;;;;1.97;1.70;;;15.40;98.00;;;;;;5134173;27;20492;-68
2022/10/16 02:02:29;;;;;;;4.03;1.90;;;15.40;98.00;;;;;;5134237;27;20493;-68
2022/10/16 02:05:02;;;;;;;2.60;1.90;;;15.30;98.00;;;;;;5134256;27;20454;-68
2022/10/16 02:07:29;;;;;;;2.57;2.00;;;15.30;98.00;;;;;;5134115;27;20457;-68
2022/10/16 02:09:57;;;;;;;2.57;1.77;;;15.30;98.00;;;;;;5134192;27;20461;-68
2022/10/16 02:12:30;;;;;;;3.20;2.00;;;15.40;98.00;;;;;;5134363;27;20464;-68
2022/10/16 02:14:58;;;;;;;2.20;1.90;;;15.30;98.00;;;;;;5134370;27;20991;-68
2022/10/16 02:17:25;;;;;;;5.70;2.30;;;15.30;98.00;;;;;;5134418;27;20536;-69
2022/10/16 02:19:55;;;;;;;1.80;1.50;;;15.20;98.00;;;;;;5134020;27;20465;-68
2022/10/16 02:22:27;;;;;;;4.50;2.10;;;15.20;98.00;;;;;;5133789;27;20481;-68
2022/10/16 02:24:59;;;;;;;2.53;1.77;;;15.20;98.00;;;;;;5133668;27;20452;-68
2022/10/16 02:27:43;;;;;;;2.20;1.60;;;15.10;98.00;;;;;;5133699;27;20457;-68
2022/10/16 02:30:17;;;;;;;2.43;1.77;;;15.10;98.00;;;;;;5133858;27;20465;-68
2022/10/16 02:32:49;;;;;;;1.67;1.57;;;15.20;98.00;;;;;;5133768;27;20453;-68
2022/10/16 02:35:19;;;;;;;1.70;1.53;;;15.20;98.00;;;;;;5133759;27;20453;-68
2022/10/16 02:37:47;;;;;;;2.47;2.17;;;15.10;98.00;;;;;;5133515;27;20465;-68
2022/10/16 02:40:15;;;;;;;1.80;1.50;;;15.10;98.00;;;;;;5133479;27;20830;-68
2022/10/16 02:42:44;;;;;;;1.70;1.60;;;15.10;98.00;;;;;;5132741;27;20481;-68
2022/10/16 02:45:12;;;;;;;1.70;1.50;;;15.10;98.00;;;;;;5133286;27;20518;-68
2022/10/16 02:47:39;;;;;;;1.63;1.60;;;15.10;98.00;;;;;;5133431;27;20461;-68
2022/10/16 02:50:09;;;;;;;2.53;1.63;;;15.10;98.00;;;;;;5133292;27;20452;-68
2022/10/16 02:52:36;;;;;;;2.63;1.70;;;15.10;98.00;;;;;;5133532;27;20534;-68
2022/10/16 02:55:07;;;;;;;2.60;1.80;;;15.20;98.00;;;;;;5133420;27;20526;-68
2022/10/16 02:57:36;;;;;;;2.77;1.80;;;15.40;98.00;;;;;;5133227;27;20468;-68
2022/10/16 03:00:06;;;;;;;2.27;1.57;;;15.50;98.00;;;;;;5133071;27;20975;-68
2022/10/16 03:02:33;;;;;;;1.87;1.50;;;15.50;98.00;;;;;;5133049;27;20890;-67
2022/10/16 03:05:00;;;;;;;2.90;1.60;;;15.60;98.00;;;;;;5131420;27;20454;-68
2022/10/16 03:07:27;;;;;;;2.00;1.50;;;15.50;98.00;;;;;;5133166;27;20468;-68
2022/10/16 03:09:54;;;;;;;2.20;1.70;;;15.50;98.00;;;;;;5132940;27;20944;-68
2022/10/16 03:12:21;;;;;;;3.13;1.73;;;15.50;98.00;;;;;;5133023;27;20472;-68
2022/10/16 03:14:49;;;;;;;2.87;1.70;;;15.40;98.00;;;;;;5133068;27;20823;-68
2022/10/16 03:17:17;;;;;;;2.60;1.90;;;15.30;98.00;;;;;;5131936;27;20453;-68
2022/10/16 03:19:44;;;;;;;2.10;1.83;;;15.20;98.00;;;;;;5133111;27;20963;-68
2022/10/16 03:22:11;;;;;;;2.27;1.87;;;15.20;98.00;;;;;;5132800;27;20485;-68
2022/10/16 03:24:38;;;;;;;1.83;1.43;;;15.10;98.00;;;;;;5132785;27;20449;-68
2022/10/16 03:27:05;;;;;;;1.87;1.50;;;15.10;98.00;;;;;;5132870;27;20465;-68
2022/10/16 03:29:33;;;;;;;2.47;1.73;;;15.10;98.00;;;;;;5131342;27;20480;-68
2022/10/16 03:32:00;;;;;;;2.40;1.73;;;15.20;98.00;;;;;;5132763;27;20449;-68
2022/10/16 03:34:31;;;;;;;1.70;1.60;;;15.20;98.00;;;;;;5132564;27;20465;-68
2022/10/16 03:36:58;;;;;;;2.07;1.57;;;15.10;98.00;;;;;;5132733;27;20674;-68
2022/10/16 03:39:25;;;;;;;1.90;1.50;;;15.00;98.00;;;;;;5132315;27;20943;-69
2022/10/16 03:41:52;;;;;;;5.40;2.30;;;15.00;98.00;;;;;;5132319;27;20541;-68
2022/10/16 03:44:19;;;;;;;1.70;1.53;;;15.00;98.00;;;;;;5132354;27;21004;-68
2022/10/16 03:46:46;;;;;;;1.60;1.57;;;15.00;98.00;;;;;;5132534;27;20449;-68
2022/10/16 03:49:13;;;;;;;1.90;1.33;;;15.00;98.00;;;;;;5131950;27;20465;-68
2022/10/16 03:51:42;;;;;;;1.50;1.30;;;14.90;98.00;;;;;;5132288;27;20464;-67
2022/10/16 03:54:10;;;;;;;3.13;2.23;;;14.90;98.00;;;;;;5132101;27;20618;-68
2022/10/16 03:56:37;;;;;;;1.53;1.43;;;14.90;98.00;;;;;;5132280;27;20876;-69
2022/10/16 03:59:04;;;;;;;3.33;1.80;;;14.90;98.00;;;;;;5132135;27;20472;-69
2022/10/16 04:01:31;;;;;;;2.57;1.87;;;14.90;98.00;;;;;;5132113;28;20560;-68
2022/10/16 04:03:58;;;;;;;2.00;1.57;;;14.90;98.00;;;;;;5132253;28;20464;-68
2022/10/16 04:06:25;;;;;;;2.10;1.70;;;14.80;98.00;;;;;;5132406;27;20459;-68
2022/10/16 04:08:54;;;;;;;3.13;2.20;;;14.80;98.00;;;;;;5131943;27;20944;-68
2022/10/16 04:11:21;;;;;;;2.80;1.80;;;14.70;98.00;;;;;;5132170;27;20453;-69
2022/10/16 04:13:48;;;;;;;1.97;1.77;;;14.70;98.00;;;;;;5132248;28;20446;-68
2022/10/16 04:16:15;;;;;;;2.17;1.63;;;14.70;98.00;;;;;;5132293;27;20465;-68
2022/10/16 04:18:42;;;;;;;2.13;1.70;;;14.70;98.00;;;;;;5132319;28;20519;-68
2022/10/16 04:21:10;;;;;;;1.97;1.63;;;14.70;98.00;;;;;;5132224;28;21007;-69
2022/10/16 04:23:37;;;;;;;2.17;1.60;;;14.70;98.00;;;;;;5132071;28;20520;-68
2022/10/16 04:26:06;;;;;;;1.93;1.83;;;14.70;98.00;;;;;;5130837;28;20456;-68
2022/10/16 04:28:33;;;;;;;2.17;1.70;;;14.70;98.00;;;;;;5130775;28;20514;-68
2022/10/16 04:31:00;;;;;;;2.77;1.90;;;14.80;98.00;;;;;;5131815;27;20457;-68
2022/10/16 04:33:27;;;;;;;2.07;1.40;;;14.70;98.00;;;;;;5129329;28;20465;-68
2022/10/16 04:36:01;;;;;;;2.50;1.77;;;14.60;98.00;;;;;;5131750;28;20472;-68
2022/10/16 04:38:28;;;;;;;9.73;2.73;;;14.60;98.00;;;;;;5132078;28;20483;-68
2022/10/16 04:40:56;;;;;;;2.73;1.63;;;14.50;98.00;;;;;;5131918;27;20469;-68
2022/10/16 04:43:24;;;;;;;2.50;1.77;;;14.50;98.00;;;;;;5130517;28;20495;-68
2022/10/16 04:45:51;;;;;;;5.00;1.77;;;14.50;98.00;;;;;;5131599;28;20453;-68
2022/10/16 04:48:18;;;;;;;2.43;1.93;;;14.50;98.00;;;;;;5131790;28;20654;-68
2022/10/16 04:50:46;;;;;;;3.30;1.90;;;14.50;98.00;;;;;;5131644;27;20499;-68
2022/10/16 04:53:13;;;;;;;2.07;1.60;;;14.40;98.00;;;;;;5131585;28;20446;-68
2022/10/16 04:55:41;;;;;;;1.30;1.20;;;14.50;98.00;;;;;;5131828;28;20485;-68
2022/10/16 04:58:09;;;;;;;1.43;1.30;;;14.50;98.00;;;;;;5131510;27;20902;-68
2022/10/16 05:00:38;;;;;;;1.77;1.60;;;14.50;98.00;;;;;;5131634;28;20849;-68
2022/10/16 05:03:07;;;;;;;4.93;2.83;;;14.60;98.00;;;;;;5131427;28;21006;-68
2022/10/16 05:05:34;;;;;;;2.17;1.57;;;14.60;98.00;;;;;;5132285;27;20452;-68
2022/10/16 05:08:01;;;;;;;1.43;1.30;;;14.50;98.00;;;;;;5135246;27;20463;-68
2022/10/16 05:10:29;;;;;;;1.27;1.23;;;14.50;98.00;;;;;;5135255;27;20456;-68
2022/10/16 05:12:56;;;;;;;1.50;1.40;;;14.50;98.00;;;;;;5134264;27;20942;-68
2022/10/16 05:15:24;;;;;;;2.30;1.60;;;14.50;98.00;;;;;;5135210;27;20457;-68
2022/10/16 05:17:54;;;;;;;1.90;1.53;;;14.50;98.00;;;;;;5135183;27;20537;-68
2022/10/16 05:20:22;;;;;;;1.80;1.40;;;14.40;98.00;;;;;;5135265;27;20855;-68
2022/10/16 05:22:49;;;;;;;2.47;1.47;;;14.40;98.00;;;;;;5135378;27;20480;-68
2022/10/16 05:25:17;;;;;;;1.80;1.30;;;14.40;98.00;;;;;;5134961;27;20453;-68
2022/10/16 05:27:44;;;;;;;1.77;1.53;;;14.50;98.00;;;;;;5135178;27;20449;-69
2022/10/16 05:30:11;;;;;;;21.43;1.87;;;14.60;98.00;;;;;;5134688;27;20465;-68
2022/10/16 05:32:38;;;;;;;1.63;1.33;;;14.60;98.00;;;;;;5135068;27;20453;-68
2022/10/16 05:35:07;;;;;;;1.60;1.40;;;14.60;98.00;;;;;;5134723;27;21017;-68
2022/10/16 05:37:34;;;;;;;2.30;1.60;;;14.60;98.00;;;;;;5134666;27;20521;-68
2022/10/16 05:40:02;;;;;;;1.73;1.30;;;14.50;98.00;;;;;;5133497;27;20509;-68
2022/10/16 05:42:29;;;;;;;3.13;1.80;;;14.50;98.00;;;;;;5134624;27;20583;-69
2022/10/16 05:44:56;;;;;;;1.50;1.40;;;14.50;98.00;;;;;;5134548;27;20518;-68
2022/10/16 05:47:23;;;;;;;2.60;1.40;;;14.60;98.00;;;;;;5133278;27;20551;-68
2022/10/16 05:49:50;;;;;;;1.77;1.33;;;14.60;98.00;;;;;;5134525;27;20454;-68
2022/10/16 05:52:19;;;;;;;1.80;1.40;;;14.50;98.00;;;;;;5134399;27;20514;-68
2022/10/16 05:54:46;;;;;;;1.60;1.53;;;14.50;98.00;;;;;;5134527;27;20462;-67
2022/10/16 05:57:13;;;;;;;2.20;1.77;;;14.50;98.00;;;;;;5134237;27;20461;-68
2022/10/16 05:59:40;;;;;;;1.50;1.40;;;14.50;98.00;;;;;;5132960;27;20514;-68
2022/10/16 06:02:09;;;;;;;2.73;1.50;;;14.50;98.00;;;;;;5134233;27;20883;-68
2022/10/16 06:04:36;;;;;;;1.63;1.40;;;14.50;98.00;;;;;;5134317;27;20461;-68
2022/10/16 06:07:04;;;;;;;2.50;1.57;;;14.40;98.00;;;;;;5134221;27;20458;-69
2022/10/16 06:09:32;;;;;;;2.77;1.90;;;14.40;98.00;;;;;;5134486;27;21160;-68
2022/10/16 06:12:00;;;;;;;3.70;2.10;;;14.40;98.00;;;;;;5134273;27;20460;-68
2022/10/16 06:14:28;;;;;;;4.73;2.97;;;14.30;98.00;;;;;;5134009;27;20956;-68
2022/10/16 06:16:55;;;;;;;4.30;2.40;;;14.40;98.00;;;;;;5134076;27;20869;-68
2022/10/16 06:19:22;;;;;;;1.33;1.30;;;14.50;98.00;;;;;;5134005;27;20450;-67
2022/10/16 06:21:49;;;;;;;1.43;1.37;;;14.50;98.00;;;;;;5133079;27;20898;-68
2022/10/16 06:24:16;;;;;;;2.03;1.40;;;14.50;98.00;;;;;;5134131;27;20513;-68
2022/10/16 06:26:45;;;;;;;2.13;1.40;;;14.60;98.00;;;;;;5134010;27;20468;-68
2022/10/16 06:29:12;;;;;;;1.60;1.50;;;14.70;98.00;;;;;;5127270;27;21056;-68
2022/10/16 06:31:39;;;;;;;1.40;1.30;;;14.70;98.00;;;;;;5112514;28;20544;-68
2022/10/16 06:34:09;;;;;;;3.20;2.00;;;14.70;98.00;;;;;;5111942;28;20466;-68
2022/10/16 06:36:36;;;;;;;1.77;1.70;;;14.90;98.00;;;;;;5113242;28;20508;-68
2022/10/16 06:39:04;;;;;;;3.33;1.97;;;14.90;98.00;;;;;;5113179;28;20463;-68
2022/10/16 06:41:31;;;;;;;1.50;1.40;;;14.90;98.00;;;;;;5113065;28;20546;-68
2022/10/16 06:44:00;;;;;;;1.40;1.20;;;15.00;98.00;;;;;;5111611;28;20854;-68
2022/10/16 06:46:28;;;;;;;2.30;1.90;;;15.00;98.00;;;;;;5112942;28;20511;-68
2022/10/16 06:48:55;;;;;;;3.40;1.80;;;15.10;98.00;;;;;;5112740;28;20447;-65
2022/10/16 06:51:24;;;;;;;1.60;1.30;;;15.20;98.00;;;;;;5112738;28;20451;-65
2022/10/16 06:53:53;;;;;;;1.80;1.47;;;15.30;98.00;;;;;;5112843;28;20881;-65
2022/10/16 06:56:22;;;;;;;1.90;1.30;;;15.30;98.00;;;;;;5112594;28;20455;-64
2022/10/16 06:58:50;;;;;;;3.30;2.03;;;15.30;98.00;;;;;;5112475;28;20473;-65
2022/10/16 07:01:20;;;;;;;3.17;1.80;;;15.50;98.00;;;;;;5112510;28;20461;-65
2022/10/16 07:03:48;;;;;;;3.17;1.80;;;15.50;98.00;;;;;;5112555;28;20494;-65
2022/10/16 07:06:17;;;;;;;2.30;1.80;;;15.60;98.00;;;;;;5112351;28;20465;-65
2022/10/16 07:08:47;;;;;;;2.80;2.00;;;15.60;98.00;;;;;;5112570;28;20795;-65
2022/10/16 07:11:16;;;;;;;1.97;1.53;;;15.70;98.00;;;;;;5112332;28;20458;-66
2022/10/16 07:13:45;;;;;;;3.33;2.20;;;15.80;98.00;;;;;;5112505;28;20447;-65
2022/10/16 07:16:13;;;;;;;2.70;1.80;;;15.80;98.00;;;;;;5112288;28;20472;-65
2022/10/16 07:18:43;;;;;;;2.73;2.07;;;15.90;98.00;;;;;;5112367;28;20459;-65
2022/10/16 07:21:12;;;;;;;3.83;1.90;;;15.90;98.00;;;;;;5112245;28;20459;-66
2022/10/16 07:23:40;;;;;;;2.90;1.97;;;15.90;98.00;;;;;;5112220;28;20486;-65
2022/10/16 07:26:08;;;;;;;2.10;1.70;;;15.80;98.00;;;;;;5112344;28;20454;-65
2022/10/16 07:28:35;;;;;;;4.40;2.00;;;15.80;98.00;;;;;;5112141;28;20481;-65
2022/10/16 07:31:04;;;;;;;2.20;1.90;;;15.90;98.00;;;;;;5112079;28;20964;-65
2022/10/16 07:33:31;;;;;;;3.33;2.40;;;16.00;98.00;;;;;;5112083;28;20450;-65
2022/10/16 07:36:00;;;;;;;2.33;2.17;;;16.10;98.00;;;;;;5111971;28;20971;-65
2022/10/16 07:38:27;;;;;;;3.80;2.20;;;16.20;98.00;;;;;;5112027;28;20459;-65
2022/10/16 07:40:58;;;;;;;2.47;1.97;;;16.20;98.00;;;;;;5112096;28;21017;-65
2022/10/16 07:43:29;;;;;;;2.20;2.00;;;16.10;98.00;;;;;;5111753;28;20594;-65
2022/10/16 07:45:57;;;;;;;4.13;2.10;;;16.10;98.00;;;;;;5110725;28;20466;-65
2022/10/16 07:48:29;;;;;;;3.07;2.20;;;16.20;98.00;;;;;;5111783;28;20469;-65
2022/10/16 07:51:00;;;;;;;2.90;2.27;;;16.10;98.00;;;;;;5111746;28;20502;-65
2022/10/16 07:53:27;;;;;;;2.90;1.90;;;16.10;98.00;;;;;;5111742;28;20463;-65
2022/10/16 07:55:59;;;;;;;2.43;1.90;;;16.10;98.00;;;;;;5111740;28;20462;-65
2022/10/16 07:58:26;;;;;;;3.50;2.20;;;16.00;98.00;;;;;;5111624;28;20558;-65
2022/10/16 08:00:53;;;;;;;2.70;2.07;;;16.00;98.00;;;;;;5111642;28;20451;-66
2022/10/16 08:03:20;;;;;;;2.43;1.80;;;16.10;98.00;;;;;;5111506;28;20995;-66
2022/10/16 08:05:47;;;;;;;2.80;1.97;;;16.10;98.00;;;;;;5111690;28;20451;-66
2022/10/16 08:08:17;;;;;;;2.40;2.10;;;16.20;98.00;;;;;;5111602;28;20483;-66
2022/10/16 08:10:48;;;;;;;2.20;1.77;;;16.30;98.00;;;;;;5109879;28;20855;-66
2022/10/16 08:13:15;;;;;;;3.40;1.80;;;16.30;98.00;;;;;;5105514;28;20467;-65
2022/10/16 08:15:42;;;;;;;2.00;1.57;;;16.40;98.00;;;;;;5111559;28;20459;-66
2022/10/16 08:18:11;;;;;;;2.03;1.80;;;16.50;98.00;;;;;;5110577;28;20470;-64
2022/10/16 08:20:43;;;;;;;3.30;1.93;;;16.50;98.00;;;;;;5091969;28;20950;-65
2022/10/16 08:23:12;;;;;;;3.93;2.13;;;16.50;98.00;;;;;;5091194;28;20494;-65
2022/10/16 08:25:40;;;;;;;2.13;2.00;;;16.50;98.00;;;;;;5091634;28;20830;-65
2022/10/16 08:28:11;;;;;;;3.57;2.23;;;16.70;98.00;;;;;;5091227;28;20457;-66
2022/10/16 08:30:39;;;;;;;3.30;2.13;;;16.80;98.00;;;;;;5091194;28;20455;-65
2022/10/16 08:33:07;;;;;;;2.60;2.10;;;16.90;98.00;;;;;;5091198;28;20452;-63
2022/10/16 08:35:35;;;;;;;2.13;1.70;;;16.90;98.00;;;;;;5089798;28;20543;-64
2022/10/16 08:38:04;;;;;;;3.30;2.07;;;16.80;98.00;;;;;;5091031;28;20464;-64
2022/10/16 08:40:33;;;;;;;2.97;2.03;;;16.90;98.00;;;;;;5091819;28;20455;-64
2022/10/16 08:43:30;;;;;;;2.83;2.10;;;17.00;98.00;;;;;;5094909;28;20480;-64
2022/10/16 08:46:20;;;;;;;3.30;2.00;;;17.10;98.00;;;;;;5094849;28;20460;-64
2022/10/16 08:48:49;;;;;;;2.07;1.80;;;17.30;98.00;;;;;;5094981;28;20460;-64
2022/10/16 08:51:21;;;;;;;2.10;2.00;;;17.50;98.00;;;;;;5094678;28;20456;-64
2022/10/16 08:53:53;;;;;;;2.50;2.00;;;17.70;98.00;;;;;;5094858;28;20885;-64
2022/10/16 08:56:21;;;;;;;2.77;1.97;;;17.80;98.00;;;;;;5094503;28;20467;-64
2022/10/16 08:58:51;;;;;;;4.63;1.93;;;17.90;98.00;;;;;;5094541;28;20468;-64
2022/10/16 09:01:22;;;;;;;2.47;2.00;;;17.90;98.00;;;;;;5094601;28;20452;-64
2022/10/16 09:04:17;;;;;;;2.33;1.80;;;17.90;98.00;;;;;;5098585;27;20558;-64
2022/10/16 09:06:48;;;;;;;6.50;2.10;;;17.90;98.00;;;;;;5124872;27;20458;-64
2022/10/16 09:09:30;;;;;;;3.30;2.30;;;17.80;98.00;;;;;;5115484;27;20706;-64
2022/10/16 09:12:05;;;;;;;2.17;2.00;;;17.80;98.00;;;;;;5122495;27;20462;-64
2022/10/16 09:14:59;;;;;;;3.20;2.00;;;17.70;98.00;;;;;;5134161;27;20453;-64
2022/10/16 09:17:39;;;;;;;2.53;1.90;;;17.80;98.00;;;;;;5135150;27;20818;-64
2022/10/16 09:20:20;;;;;;;3.90;2.40;;;17.70;98.00;;;;;;5135253;27;20460;-64
2022/10/16 09:22:47;;;;;;;2.57;1.93;;;17.70;98.00;;;;;;5135282;27;20544;-65
2022/10/16 09:25:16;;;;;;;3.70;2.00;;;17.70;98.00;;;;;;5134070;27;20461;-64
2022/10/16 09:27:47;;;;;;;2.17;1.90;;;17.80;98.00;;;;;;5135198;27;20447;-65
2022/10/16 09:30:18;;;;;;;3.10;2.20;;;17.80;98.00;;;;;;5133633;27;20458;-65
2022/10/16 09:32:49;;;;;;;4.60;2.47;;;17.90;98.00;;;;;;5135028;27;20983;-64
2022/10/16 09:35:20;;;;;;;2.73;1.90;;;18.10;98.00;;;;;;5134575;27;20454;-64
2022/10/16 09:37:51;;;;;;;1.97;1.80;;;18.30;98.00;;;;;;5134811;27;20461;-65
2022/10/16 09:40:27;;;;;;;2.80;1.67;;;18.40;98.00;;;;;;5134857;27;20458;-65
2022/10/16 09:43:01;;;;;;;1.83;1.77;;;18.70;98.00;;;;;;5134775;27;20472;-65
2022/10/16 09:45:31;;;;;;;2.00;1.60;;;18.80;98.00;;;;;;5134545;27;20457;-64
2022/10/16 09:47:59;;;;;;;2.07;1.80;;;18.90;98.00;;;;;;5134636;27;20461;-64
2022/10/16 09:50:27;;;;;;;1.60;1.50;;;19.00;98.00;;;;;;5134498;27;20453;-65
2022/10/16 09:53:05;;;;;;;2.60;1.90;;;19.10;98.00;;;;;;5132858;27;20503;-63
2022/10/16 09:55:34;;;;;;;2.43;1.83;;;19.20;98.00;;;;;;5134569;27;20558;-65
2022/10/16 09:58:01;;;;;;;3.20;2.03;;;19.30;98.00;;;;;;5133157;27;20506;-65
2022/10/16 10:00:29;;;;;;;2.33;1.80;;;19.40;98.00;;;;;;5134239;27;20860;-65
2022/10/16 10:02:58;;;;;;;1.90;1.73;;;19.50;98.00;;;;;;5134337;27;20479;-64
2022/10/16 10:05:27;;;;;;;2.87;1.87;;;19.60;98.00;;;;;;5134236;27;20454;-64
2022/10/16 10:08:00;;;;;;;3.50;2.00;;;19.70;98.00;;;;;;5134336;27;20446;-65
2022/10/16 10:10:30;;;;;;;4.03;1.93;;;19.60;98.00;;;;;;5133896;27;20466;-64
2022/10/16 10:12:58;;;;;;;3.30;2.17;;;19.50;98.00;;;;;;5134142;27;20457;-64
2022/10/16 10:15:26;;;;;;;1.90;1.70;;;19.50;98.00;;;;;;5133880;27;20458;-65
2022/10/16 10:17:56;;;;;;;2.20;1.57;;;19.80;98.00;;;;;;5133877;27;20451;-64
2022/10/16 10:20:28;;;;;;;2.00;1.70;;;19.90;98.00;;;;;;5133797;27;20489;-65
2022/10/16 10:22:56;;;;;;;2.47;1.80;;;20.00;98.00;;;;;;5134306;27;20502;-64
2022/10/16 10:25:49;;;;;;;2.80;2.13;;;20.10;98.00;;;;;;5133866;27;20580;-64
2022/10/16 10:28:29;;;;;;;2.77;2.00;;;20.30;98.00;;;;;;5133711;27;20975;-65
2022/10/16 10:31:06;;;;;;;2.03;1.90;;;20.70;98.00;;;;;;5133916;27;20457;-64
2022/10/16 10:33:42;;;;;;;2.93;1.87;;;20.90;98.00;;;;;;5133902;27;20851;-65
2022/10/16 10:36:22;;;;;;;2.03;1.53;;;20.90;98.00;;;;;;5133728;27;20450;-64
2022/10/16 10:38:53;;;;;;;2.33;1.50;;;20.80;98.00;;;;;;5133835;27;20462;-65
2022/10/16 10:42:02;;;;;;;3.23;1.90;;;20.70;98.00;;;;;;5133458;27;20904;-65
2022/10/16 10:44:52;;;;;;;3.70;1.93;;;21.10;98.00;;;;;;5149216;27;20530;-65
2022/10/16 10:47:31;;;;;;;3.97;1.97;;;21.40;98.00;;;;;;5130826;27;20461;-64
2022/10/16 10:50:07;;;;;;;1.97;1.67;;;21.90;98.00;;;;;;5132052;27;20511;-65
2022/10/16 10:52:54;;;;;;;3.30;1.90;;;22.20;98.00;;;;;;5133333;27;20450;-65
2022/10/16 10:55:27;;;;;;;1.93;1.77;;;22.60;98.00;;;;;;5133186;27;20464;-65
2022/10/16 10:58:16;;;;;;;2.27;1.80;;;22.90;98.00;;;;;;5133029;27;20518;-64
2022/10/16 11:00:51;;;;;;;1.80;1.67;;;23.30;98.00;;;;;;5130623;27;20468;-65
2022/10/16 11:03:41;;;;;;;2.63;1.80;;;23.60;98.00;;;;;;5132257;27;20461;-65
2022/10/16 11:06:12;;;;;;;2.43;1.73;;;23.90;98.00;;;;;;5132687;27;20508;-65
2022/10/16 11:08:48;;;;;;;4.30;2.70;;;24.30;98.00;;;;;;5133198;27;20477;-65
2022/10/16 11:11:21;;;;;;;2.20;1.90;;;24.60;98.00;;;;;;5133010;27;20458;-65
2022/10/16 11:13:56;;;;;;;2.20;1.80;;;25.00;98.00;;;;;;5132771;27;20450;-65
2022/10/16 11:16:29;;;;;;;1.80;1.70;;;25.40;98.00;;;;;;5132951;27;20820;-65
2022/10/16 11:19:00;;;;;;;1.93;1.60;;;25.70;98.00;;;;;;5131958;27;20458;-65
2022/10/16 11:21:30;;;;;;;2.30;1.80;;;26.00;98.00;;;;;;5132965;27;20465;-65
2022/10/16 11:24:05;;;;;;;1.87;1.70;;;26.20;98.00;;;;;;5132873;27;20470;-65
2022/10/16 11:26:41;;;;;;;2.27;1.63;;;26.40;98.00;;;;;;5132884;27;20541;-65
2022/10/16 11:29:17;;;;;;;2.13;1.73;;;26.60;98.00;;;;;;5132902;27;20454;-64
2022/10/16 11:31:49;;;;;;;2.10;1.73;;;26.80;98.00;;;;;;5132886;27;20454;-64
2022/10/16 11:34:23;;;;;;;2.17;1.90;;;27.00;98.00;;;;;;5132554;27;20453;-65
2022/10/16 11:36:57;;;;;;;2.13;1.60;;;27.30;98.00;;;;;;5132752;27;20462;-66
2022/10/16 11:39:28;;;;;;;2.07;1.70;;;27.40;96.20;;;;;;5114784;27;20510;-64
2022/10/16 11:42:00;;;;;;;1.63;1.60;;;27.30;95.80;;;;;;5132637;27;20454;-65
2022/10/16 11:44:48;;;;;;;2.23;1.87;;;27.40;98.00;;;;;;5132375;27;21013;-66
2022/10/16 11:47:26;;;;;;;2.30;1.90;;;27.60;96.00;;;;;;5131156;27;20486;-65
2022/10/16 11:49:59;;;;;;;3.80;1.70;;;27.60;94.50;;;;;;5132626;27;20453;-65
2022/10/16 11:52:32;;;;;;;2.50;1.60;;;27.70;97.10;;;;;;5132278;27;20952;-65
2022/10/16 11:55:05;;;;;;;2.23;1.97;;;27.90;95.30;;;;;;5132331;27;20477;-65
2022/10/16 11:57:35;;;;;;;1.77;1.73;;;28.10;97.60;;;;;;5132030;27;20458;-65
2022/10/16 12:00:07;;;;;;;1.83;1.70;;;28.50;97.30;;;;;;5132474;27;20482;-65
2022/10/16 12:02:46;;;;;;;1.73;1.57;;;28.60;93.40;;;;;;5132407;28;20458;-65
2022/10/16 12:05:23;;;;;;;2.93;2.00;;;28.80;92.50;;;;;;5132172;28;20489;-65
2022/10/16 12:07:59;;;;;;;1.70;1.60;;;28.70;91.00;;;;;;5132301;28;20865;-64
2022/10/16 12:10:31;;;;;;;1.97;1.73;;;28.90;91.30;;;;;;5132267;28;20457;-65
2022/10/16 12:12:58;;;;;;;1.63;1.40;;;28.70;90.10;;;;;;5130940;27;20476;-66
2022/10/16 12:15:27;;;;;;;2.93;1.70;;;28.80;91.20;;;;;;5134862;27;21045;-66
2022/10/16 12:17:55;;;;;;;3.00;1.67;;;29.10;90.60;;;;;;5136762;27;20457;-65
2022/10/16 12:20:26;;;;;;;1.60;1.50;;;29.30;87.50;;;;;;5136365;27;20499;-65
2022/10/16 12:22:55;;;;;;;2.50;1.53;;;29.10;91.50;;;;;;5136743;27;20530;-65
2022/10/16 12:25:27;;;;;;;2.10;1.60;;;29.00;91.20;;;;;;5136138;27;20983;-65
2022/10/16 12:28:01;;;;;;;2.37;1.93;;;29.00;91.40;;;;;;5136487;27;20518;-65
2022/10/16 12:30:31;;;;;;;2.50;1.63;;;29.00;91.10;;;;;;5136362;27;20458;-66
2022/10/16 12:33:01;;;;;;;1.80;1.60;;;29.20;88.50;;;;;;5136000;27;20454;-66
2022/10/16 12:35:30;;;;;;;1.73;1.60;;;29.10;90.10;;;;;;5136034;27;20817;-64
2022/10/16 12:38:07;;;;;;;2.50;1.90;;;29.20;88.60;;;;;;5136187;27;20786;-65
2022/10/16 12:40:38;;;;;;;1.97;1.60;;;29.30;89.30;;;;;;5135923;27;20881;-65
2022/10/16 12:43:36;;;;;;;2.60;2.00;;;29.60;89.40;;;;;;5135876;27;20454;-65
2022/10/16 12:46:06;;;;;;;1.90;1.70;;;29.90;86.20;;;;;;5123508;27;21190;-65
2022/10/16 12:48:34;;;;;;;2.50;1.83;;;29.60;85.20;;;;;;5134576;27;20952;-66
2022/10/16 12:51:12;;;;;;;2.10;1.80;;;28.60;88.00;;;;;;5135837;27;20532;-64
2022/10/16 12:53:39;;;;;;;1.77;1.73;;;28.50;90.70;;;;;;5136004;27;20528;-65
2022/10/16 12:56:17;;;;;;;2.33;1.53;;;28.30;88.90;;;;;;5135535;27;20940;-66
2022/10/16 12:59:01;;;;;;;2.20;1.80;;;28.20;95.10;;;;;;5135544;27;20886;-65
2022/10/16 13:01:40;;;;;;;1.63;1.50;;;28.30;98.00;;;;;;5135750;27;20464;-65
2022/10/16 13:04:34;;;;;;;2.20;1.80;;;28.90;97.40;;;;;;5134343;27;20454;-65
2022/10/16 13:07:12;;;;;;;2.63;2.10;;;29.20;91.60;;;;;;5135652;27;20497;-65